createdAt,value
2022-07-27T00:01:20.772Z,20.30
2022-07-27T00:03:49.583Z,20.00
2022-07-27T00:06:17.997Z,20.20
2022-07-27T00:08:46.391Z,20.40
2022-07-27T00:11:15.037Z,21.20
2022-07-27T00:13:46.069Z,21.50
2022-07-27T00:16:14.681Z,21.60
2022-07-27T00:18:43.100Z,21.40
2022-07-27T00:21:11.720Z,21.40
2022-07-27T00:23:40.792Z,21.10
2022-07-27T00:26:09.185Z,21.60
2022-07-27T00:28:37.534Z,22.10
2022-07-27T00:31:07.726Z,21.80
2022-07-27T00:33:36.096Z,21.70
2022-07-27T00:36:04.536Z,22.30
2022-07-27T00:38:33.046Z,22.60
2022-07-27T00:41:01.479Z,22.90
2022-07-27T00:43:29.842Z,22.80
2022-07-27T00:45:58.257Z,22.10
2022-07-27T00:48:29.336Z,21.80
2022-07-27T00:50:58.523Z,21.00
2022-07-27T00:53:26.925Z,20.90
2022-07-27T00:55:55.598Z,21.50
2022-07-27T00:58:24.606Z,21.60
2022-07-27T01:00:52.972Z,22.00
2022-07-27T01:03:23.201Z,22.20
2022-07-27T01:05:58.334Z,22.10
2022-07-27T01:08:27.207Z,22.10
2022-07-27T01:10:57.887Z,22.50
2022-07-27T01:13:27.502Z,22.70
2022-07-27T01:15:56.005Z,22.10
2022-07-27T01:18:33.340Z,21.70
2022-07-27T01:21:05.041Z,22.00
2022-07-27T01:23:35.134Z,20.90
2022-07-27T01:26:05.584Z,21.50
2022-07-27T01:28:33.948Z,22.20
2022-07-27T01:31:02.582Z,22.40
2022-07-27T01:33:31.073Z,22.60
2022-07-27T01:35:59.784Z,22.60
2022-07-27T01:38:28.456Z,22.70
2022-07-27T01:40:58.502Z,22.30
2022-07-27T01:43:26.854Z,22.40
2022-07-27T01:45:56.140Z,22.40
2022-07-27T01:48:24.630Z,22.50
2022-07-27T01:50:53.084Z,21.20
2022-07-27T01:53:22.834Z,20.20
2022-07-27T01:55:52.327Z,19.60
2022-07-27T01:58:22.049Z,19.60
2022-07-27T02:00:51.560Z,20.70
2022-07-27T02:03:20.226Z,20.80
2022-07-27T02:05:48.685Z,21.30
2022-07-27T02:08:17.073Z,21.10
2022-07-27T02:10:59.351Z,21.60
2022-07-27T02:13:29.480Z,21.90
2022-07-27T02:15:58.117Z,21.90
2022-07-27T02:18:36.311Z,22.20
2022-07-27T02:21:06.964Z,22.30
2022-07-27T02:23:36.840Z,22.20
2022-07-27T02:26:06.703Z,22.10
2022-07-27T02:28:37.252Z,22.30
2022-07-27T02:31:05.730Z,22.40
2022-07-27T02:33:34.131Z,22.40
2022-07-27T02:36:02.530Z,22.30
2022-07-27T02:38:30.888Z,22.40
2022-07-27T02:40:59.300Z,22.40
2022-07-27T02:43:27.618Z,22.40
2022-07-27T02:45:57.439Z,22.50
2022-07-27T02:48:25.831Z,22.60
2022-07-27T02:50:54.256Z,22.50
2022-07-27T02:53:22.581Z,22.50
2022-07-27T02:55:50.927Z,22.50
2022-07-27T02:58:19.266Z,22.50
2022-07-27T03:00:48.050Z,22.50
2022-07-27T03:03:17.859Z,22.50
2022-07-27T03:05:46.334Z,22.40
2022-07-27T03:08:14.658Z,22.40
2022-07-27T03:10:48.774Z,22.30
2022-07-27T03:13:17.355Z,22.40
2022-07-27T03:15:45.823Z,22.40
2022-07-27T03:18:14.218Z,22.30
2022-07-27T03:20:44.007Z,22.30
2022-07-27T03:23:12.446Z,22.30
2022-07-27T03:25:40.796Z,22.20
2022-07-27T03:28:09.141Z,22.20
2022-07-27T03:30:37.814Z,22.20
2022-07-27T03:33:06.269Z,22.20
2022-07-27T03:35:35.193Z,22.10
2022-07-27T03:38:04.954Z,22.20
2022-07-27T03:40:33.714Z,22.10
2022-07-27T03:43:02.454Z,22.20
2022-07-27T03:45:31.109Z,22.20
2022-07-27T03:47:59.517Z,22.20
2022-07-27T03:50:28.004Z,22.20
2022-07-27T03:52:56.452Z,22.10
2022-07-27T03:55:26.382Z,22.10
2022-07-27T03:57:54.804Z,22.00
2022-07-27T04:00:23.759Z,22.00
2022-07-27T04:02:52.907Z,21.80
2022-07-27T04:05:21.908Z,21.90
2022-07-27T04:07:54.867Z,21.80
2022-07-27T04:10:30.092Z,21.80
2022-07-27T04:13:00.299Z,21.80
2022-07-27T04:15:30.231Z,21.70
2022-07-27T04:17:58.723Z,21.90
2022-07-27T04:20:27.809Z,21.60
2022-07-27T04:22:56.502Z,21.60
2022-07-27T04:25:26.325Z,21.10
2022-07-27T04:27:55.454Z,21.10
2022-07-27T04:30:24.314Z,20.50
2022-07-27T04:32:53.272Z,20.30
2022-07-27T04:35:26.280Z,20.90
2022-07-27T04:37:58.821Z,21.30
2022-07-27T04:40:33.307Z,21.70
2022-07-27T04:43:02.502Z,21.80
2022-07-27T04:45:31.675Z,21.90
2022-07-27T04:48:00.444Z,22.10
2022-07-27T04:50:28.834Z,22.10
2022-07-27T04:52:57.197Z,22.30
2022-07-27T04:55:25.759Z,22.70
2022-07-27T04:57:55.488Z,23.20
2022-07-27T05:00:24.045Z,23.90
2022-07-27T05:02:52.402Z,24.50
2022-07-27T05:05:20.766Z,24.90
2022-07-27T05:07:49.098Z,25.20
2022-07-27T05:10:20.635Z,25.40
2022-07-27T05:17:49.882Z,25.90
2022-07-27T05:20:18.224Z,25.90
2022-07-27T05:22:46.567Z,26.10
2022-07-27T05:25:15.136Z,26.10
2022-07-27T05:27:53.767Z,26.40
2022-07-27T05:30:25.545Z,26.30
2022-07-27T05:32:54.232Z,26.40
2022-07-27T05:35:22.958Z,26.60
2022-07-27T05:37:51.518Z,26.70
2022-07-27T05:40:19.989Z,26.90
2022-07-27T05:42:48.778Z,26.80
2022-07-27T05:45:17.264Z,26.80
2022-07-27T05:47:46.981Z,26.20
2022-07-27T05:50:16.930Z,25.00
2022-07-27T05:52:45.722Z,25.90
2022-07-27T05:55:15.042Z,26.20
2022-07-27T05:57:43.640Z,25.00
2022-07-27T06:00:13.728Z,24.80
2022-07-27T06:02:42.885Z,25.70
2022-07-27T06:05:15.991Z,25.90
2022-07-27T06:08:00.681Z,25.80
2022-07-27T06:10:32.497Z,24.40
2022-07-27T06:13:04.313Z,25.20
2022-07-27T06:15:33.527Z,24.30
2022-07-27T06:18:03.804Z,25.20
2022-07-27T06:20:33.678Z,26.10
2022-07-27T06:23:07.767Z,26.70
2022-07-27T06:25:37.271Z,25.20
2022-07-27T06:28:09.173Z,24.10
2022-07-27T06:30:37.609Z,22.80
2022-07-27T06:33:06.708Z,23.50
2022-07-27T06:35:37.976Z,22.40
2022-07-27T06:38:07.809Z,21.80
2022-07-27T06:40:36.465Z,21.80
2022-07-27T06:43:04.878Z,23.00
2022-07-27T06:45:33.244Z,23.40
2022-07-27T06:48:01.592Z,23.80
2022-07-27T06:50:30.051Z,23.40
2022-07-27T06:52:59.781Z,22.30
2022-07-27T06:55:28.427Z,21.80
2022-07-27T06:57:56.793Z,22.90
2022-07-27T07:00:25.728Z,22.40
2022-07-27T07:02:56.537Z,23.10
2022-07-27T07:05:25.216Z,22.60
2022-07-27T07:07:55.459Z,23.30
2022-07-27T07:10:27.234Z,23.50
2022-07-27T07:12:56.686Z,25.00
2022-07-27T07:15:26.831Z,24.00
2022-07-27T07:17:55.475Z,21.90
2022-07-27T07:20:24.692Z,22.50
2022-07-27T07:22:53.371Z,22.50
2022-07-27T07:25:22.064Z,23.20
2022-07-27T07:27:52.807Z,23.00
2022-07-27T07:30:22.108Z,22.10
2022-07-27T07:32:50.846Z,22.50
2022-07-27T07:35:19.851Z,23.70
2022-07-27T07:37:50.623Z,24.00
2022-07-27T07:43:09.568Z,24.90
2022-07-27T07:45:49.975Z,23.60
2022-07-27T07:48:20.344Z,23.90
2022-07-27T07:50:51.417Z,22.80
2022-07-27T07:53:22.526Z,22.30
2022-07-27T07:55:51.257Z,22.60
2022-07-27T07:58:21.475Z,24.00
2022-07-27T08:00:50.086Z,23.90
2022-07-27T08:03:19.116Z,24.70
2022-07-27T08:05:47.618Z,23.30
2022-07-27T08:10:45.616Z,22.20
2022-07-27T08:13:21.590Z,21.50
2022-07-27T08:15:52.546Z,20.70
2022-07-27T08:18:22.127Z,21.30
2022-07-27T08:20:50.574Z,21.50
2022-07-27T08:23:18.993Z,21.40
2022-07-27T08:25:47.466Z,21.50
2022-07-27T08:30:44.624Z,19.80
2022-07-27T08:33:14.697Z,21.20
2022-07-27T08:35:43.110Z,22.40
2022-07-27T08:38:11.517Z,22.60
2022-07-27T08:40:44.088Z,23.40
2022-07-27T08:43:18.940Z,23.30
2022-07-27T08:45:56.769Z,22.10
2022-07-27T08:48:28.986Z,22.40
2022-07-27T08:50:58.221Z,23.10
2022-07-27T08:53:35.836Z,23.50
2022-07-27T08:56:15.679Z,23.30
2022-07-27T08:58:45.997Z,22.60
2022-07-27T09:01:14.870Z,21.90
2022-07-27T09:03:44.821Z,22.10
2022-07-27T09:06:13.344Z,22.30
2022-07-27T09:08:42.008Z,22.50
2022-07-27T09:11:16.800Z,24.20
2022-07-27T09:13:45.235Z,22.50
2022-07-27T09:16:21.418Z,22.10
2022-07-27T09:19:01.742Z,21.00
2022-07-27T09:21:30.334Z,20.20
2022-07-27T09:24:23.333Z,21.10
2022-07-27T09:27:05.879Z,21.30
2022-07-27T09:29:36.510Z,20.70
2022-07-27T09:32:16.182Z,21.10
2022-07-27T09:34:46.504Z,21.30
2022-07-27T09:37:25.821Z,22.40
2022-07-27T09:40:16.228Z,23.10
2022-07-27T09:43:52.234Z,24.70
2022-07-27T09:46:08.077Z,24.50
2022-07-27T09:48:37.616Z,24.70
2022-07-27T09:51:55.862Z,22.80
2022-07-27T09:54:00.823Z,23.90
2022-07-27T09:56:31.388Z,23.20
2022-07-27T09:59:01.634Z,22.50
2022-07-27T10:01:35.157Z,21.60
2022-07-27T10:04:06.423Z,22.00
2022-07-27T10:07:00.340Z,21.90
2022-07-27T10:09:24.900Z,21.60
2022-07-27T10:11:54.191Z,22.80
2022-07-27T10:14:22.567Z,24.40
2022-07-27T10:16:52.504Z,24.20
2022-07-27T10:19:26.960Z,24.10
2022-07-27T10:21:56.825Z,24.40
2022-07-27T10:24:29.406Z,24.10
2022-07-27T10:26:57.922Z,23.70
2022-07-27T10:29:26.884Z,22.70
2022-07-27T10:32:01.475Z,23.20
2022-07-27T10:34:39.193Z,22.80
2022-07-27T10:37:13.986Z,23.30
2022-07-27T10:39:44.769Z,24.20
2022-07-27T10:42:28.739Z,24.40
2022-07-27T10:45:10.506Z,24.40
2022-07-27T10:47:44.755Z,24.20
2022-07-27T10:50:31.973Z,24.70
2022-07-27T10:53:11.373Z,24.20
2022-07-27T10:55:51.673Z,23.50
2022-07-27T10:58:50.136Z,23.30
2022-07-27T11:01:27.755Z,22.70
2022-07-27T11:03:59.194Z,23.40
2022-07-27T11:06:34.625Z,22.90
2022-07-27T11:11:56.692Z,22.90
2022-07-27T11:14:30.120Z,23.50
2022-07-27T11:17:24.410Z,23.90
2022-07-27T11:19:54.624Z,23.80
2022-07-27T11:23:33.998Z,22.30
2022-07-27T11:25:28.975Z,23.00
2022-07-27T11:27:57.334Z,22.10
2022-07-27T11:30:28.480Z,21.50
2022-07-27T11:32:57.863Z,22.20
2022-07-27T11:35:26.377Z,22.70
2022-07-27T11:38:03.245Z,23.20
2022-07-27T11:43:36.862Z,23.30
2022-07-27T11:46:19.490Z,23.30
2022-07-27T11:49:06.641Z,23.00
2022-07-27T11:51:37.320Z,23.30
2022-07-27T11:54:08.837Z,22.40
2022-07-27T11:56:43.380Z,22.50
2022-07-27T11:59:18.097Z,23.00
2022-07-27T12:01:50.285Z,23.20
2022-07-27T12:04:25.386Z,23.30
2022-07-27T12:07:07.788Z,23.50
2022-07-27T12:09:40.214Z,24.70
2022-07-27T12:12:15.102Z,23.90
2022-07-27T12:14:47.122Z,23.90
2022-07-27T12:17:26.686Z,23.10
2022-07-27T12:20:00.391Z,23.10
2022-07-27T12:22:35.544Z,23.80
2022-07-27T12:25:10.031Z,23.30
2022-07-27T12:27:59.334Z,23.10
2022-07-27T12:30:33.417Z,22.80
2022-07-27T12:33:03.731Z,22.60
2022-07-27T12:35:38.833Z,22.90
2022-07-27T12:38:10.485Z,23.10
2022-07-27T12:40:48.983Z,23.50
2022-07-27T12:43:21.356Z,23.50
2022-07-27T12:45:51.773Z,23.00
2022-07-27T12:48:23.529Z,23.20
2022-07-27T12:51:01.623Z,23.80
2022-07-27T12:53:31.407Z,23.30
2022-07-27T12:56:02.056Z,23.60
2022-07-27T12:58:31.932Z,23.40
2022-07-27T13:01:00.889Z,23.20
2022-07-27T13:03:29.402Z,23.90
2022-07-27T13:05:57.845Z,24.50
2022-07-27T13:08:26.268Z,24.50
2022-07-27T13:10:54.883Z,24.40
2022-07-27T13:13:24.939Z,23.90
2022-07-27T13:15:54.846Z,24.40
2022-07-27T13:18:24.128Z,24.60
2022-07-27T13:20:53.172Z,24.20
2022-07-27T13:23:22.701Z,23.90
2022-07-27T13:25:52.269Z,23.20
2022-07-27T13:28:20.648Z,22.40
2022-07-27T13:30:49.238Z,22.70
2022-07-27T13:33:18.993Z,22.80
2022-07-27T13:35:47.644Z,23.60
2022-07-27T13:38:28.666Z,24.10
2022-07-27T13:40:57.252Z,23.50
2022-07-27T13:43:25.646Z,23.60
2022-07-27T13:45:54.140Z,23.70
2022-07-27T13:48:23.912Z,23.10
2022-07-27T13:50:52.339Z,21.80
2022-07-27T13:53:20.741Z,22.30
2022-07-27T13:55:49.128Z,22.80
2022-07-27T13:58:17.480Z,22.70
2022-07-27T14:00:45.885Z,21.60
2022-07-27T14:03:14.288Z,22.50
2022-07-27T14:05:48.959Z,22.50
2022-07-27T14:08:18.971Z,22.60
2022-07-27T14:10:47.666Z,21.90
2022-07-27T14:13:17.976Z,21.70
2022-07-27T14:15:53.469Z,21.50
2022-07-27T14:18:27.616Z,22.70
2022-07-27T14:21:00.137Z,22.90
2022-07-27T14:23:29.736Z,23.40
2022-07-27T14:25:59.909Z,23.10
2022-07-27T14:28:30.408Z,23.60
2022-07-27T14:31:00.687Z,23.80
2022-07-27T14:33:34.004Z,23.70
2022-07-27T14:36:08.755Z,23.20
2022-07-27T14:38:38.728Z,23.80
2022-07-27T14:41:08.079Z,23.70
2022-07-27T14:43:37.202Z,23.40
2022-07-27T14:46:05.536Z,22.60
2022-07-27T14:49:05.653Z,22.60
2022-07-27T14:51:23.676Z,22.60
2022-07-27T14:53:52.119Z,22.90
2022-07-27T14:56:22.170Z,22.70
2022-07-27T14:58:50.573Z,24.00
2022-07-27T15:01:18.976Z,23.50
2022-07-27T15:03:47.603Z,24.10
2022-07-27T15:06:16.178Z,24.60
2022-07-27T15:08:46.106Z,24.60
2022-07-27T15:11:14.485Z,24.90
2022-07-27T15:13:42.852Z,24.40
2022-07-27T15:16:12.030Z,24.40
2022-07-27T15:18:40.484Z,24.20
2022-07-27T15:21:13.214Z,24.40
2022-07-27T15:23:44.903Z,23.90
2022-07-27T15:26:14.099Z,23.30
2022-07-27T15:28:43.130Z,23.30
2022-07-27T15:31:13.447Z,23.30
2022-07-27T15:33:42.433Z,23.20
2022-07-27T15:36:31.406Z,23.20
2022-07-27T15:39:01.611Z,23.20
2022-07-27T15:41:31.092Z,23.70
2022-07-27T15:44:00.028Z,23.30
2022-07-27T15:46:28.552Z,23.30
2022-07-27T15:48:57.153Z,23.60
2022-07-27T15:51:26.204Z,23.50
2022-07-27T15:53:54.687Z,23.50
2022-07-27T15:56:24.968Z,22.90
2022-07-27T15:58:53.623Z,23.10
2022-07-27T16:01:22.085Z,23.20
2022-07-27T16:03:52.050Z,23.10
2022-07-27T16:06:20.582Z,23.10
2022-07-27T16:08:49.201Z,23.30
2022-07-27T16:11:18.900Z,23.70
2022-07-27T16:13:49.100Z,23.70
2022-07-27T16:16:25.016Z,23.70
2022-07-27T16:18:54.396Z,22.90
2022-07-27T16:21:23.099Z,22.90
2022-07-27T16:23:53.129Z,23.30
2022-07-27T16:26:22.458Z,23.60
2022-07-27T16:28:54.129Z,23.60
2022-07-27T16:31:22.689Z,23.70
2022-07-27T16:33:55.176Z,23.60
2022-07-27T16:36:23.657Z,23.80
2022-07-27T16:38:52.477Z,24.00
2022-07-27T16:41:22.609Z,24.20
2022-07-27T16:43:53.082Z,24.40
2022-07-27T16:46:21.566Z,24.10
2022-07-27T16:48:49.977Z,24.60
2022-07-27T16:51:18.452Z,23.90
2022-07-27T16:53:49.061Z,23.90
2022-07-27T16:56:17.703Z,24.20
2022-07-27T16:58:46.161Z,23.80
2022-07-27T17:01:21.778Z,23.30
2022-07-27T17:03:56.387Z,22.80
2022-07-27T17:06:27.063Z,22.70
2022-07-27T17:08:56.125Z,22.80
2022-07-27T17:11:25.008Z,22.80
2022-07-27T17:13:59.038Z,22.80
2022-07-27T17:16:30.082Z,23.00
2022-07-27T17:18:58.479Z,22.80
2022-07-27T17:21:27.052Z,22.80
2022-07-27T17:23:55.402Z,22.40
2022-07-27T17:26:24.897Z,22.40
2022-07-27T17:28:54.130Z,22.50
2022-07-27T17:31:22.871Z,22.00
2022-07-27T17:33:53.391Z,22.30
2022-07-27T17:36:22.691Z,22.20
2022-07-27T17:38:51.803Z,22.20
2022-07-27T17:41:25.032Z,22.20
2022-07-27T17:43:54.589Z,22.40
2022-07-27T17:46:24.750Z,22.40
2022-07-27T17:48:55.268Z,22.00
2022-07-27T17:51:25.391Z,22.10
2022-07-27T17:53:54.168Z,22.00
2022-07-27T17:56:22.528Z,22.00
2022-07-27T17:58:51.539Z,21.90
2022-07-27T18:01:46.529Z,22.40
2022-07-27T18:04:09.611Z,22.30
2022-07-27T18:06:37.983Z,22.60
2022-07-27T18:09:07.253Z,22.60
2022-07-27T18:11:35.785Z,22.50
2022-07-27T18:14:04.096Z,21.60
2022-07-27T18:16:36.613Z,21.90
2022-07-27T18:19:10.488Z,21.50
2022-07-27T18:21:39.070Z,21.90
2022-07-27T18:24:10.380Z,21.90
2022-07-27T18:26:39.098Z,22.00
2022-07-27T18:29:07.752Z,22.00
2022-07-27T18:31:36.340Z,21.70
2022-07-27T18:34:10.664Z,21.70
2022-07-27T18:36:42.649Z,21.80
2022-07-27T18:39:11.386Z,21.30
2022-07-27T18:41:40.775Z,21.40
2022-07-27T18:44:09.428Z,21.50
2022-07-27T18:46:37.913Z,22.20
2022-07-27T18:49:06.426Z,22.00
2022-07-27T18:51:37.168Z,22.00
2022-07-27T18:54:07.009Z,21.90
2022-07-27T18:56:35.443Z,21.40
2022-07-27T18:59:03.720Z,22.10
2022-07-27T19:01:32.126Z,22.30
2022-07-27T19:04:00.546Z,22.30
2022-07-27T19:06:31.164Z,22.40
2022-07-27T19:08:59.434Z,22.90
2022-07-27T19:11:29.080Z,23.30
2022-07-27T19:13:58.025Z,23.10
2022-07-27T19:16:27.103Z,23.30
2022-07-27T19:18:55.519Z,23.50
2022-07-27T19:21:24.096Z,23.50
2022-07-27T19:23:52.469Z,22.80
2022-07-27T19:26:20.885Z,22.50
2022-07-27T19:28:50.583Z,22.40
2022-07-27T19:31:23.025Z,22.40
2022-07-27T19:33:52.580Z,22.70
2022-07-27T19:36:23.044Z,22.20
2022-07-27T19:38:51.614Z,21.90
2022-07-27T19:41:20.150Z,21.30
2022-07-27T19:43:50.170Z,21.20
2022-07-27T19:46:18.489Z,21.60
2022-07-27T19:48:47.191Z,20.60
2022-07-27T19:51:16.155Z,21.20
2022-07-27T19:53:44.658Z,21.50
2022-07-27T19:56:13.050Z,20.80
2022-07-27T19:58:41.420Z,21.10
2022-07-27T20:01:11.466Z,20.70
2022-07-27T20:06:23.258Z,21.20
2022-07-27T20:08:53.931Z,21.50
2022-07-27T20:11:22.248Z,22.10
2022-07-27T20:13:50.580Z,21.70
2022-07-27T20:16:20.506Z,22.00
2022-07-27T20:18:48.881Z,22.20
2022-07-27T20:21:20.171Z,21.90
2022-07-27T20:23:51.871Z,22.10
2022-07-27T20:26:20.394Z,21.80
2022-07-27T20:28:50.173Z,22.20
2022-07-27T20:31:20.237Z,21.50
2022-07-27T20:33:48.714Z,21.20
2022-07-27T20:36:17.031Z,21.30
2022-07-27T20:38:45.512Z,22.10
2022-07-27T20:41:13.839Z,21.70
2022-07-27T20:43:42.157Z,22.10
2022-07-27T20:46:10.568Z,22.40
2022-07-27T20:48:41.938Z,21.70
2022-07-27T20:51:10.308Z,22.40
2022-07-27T20:53:39.468Z,22.40
2022-07-27T20:56:07.862Z,22.40
2022-07-27T20:58:36.216Z,22.50
2022-07-27T21:01:05.155Z,22.50
2022-07-27T21:03:34.378Z,23.00
2022-07-27T21:06:04.540Z,22.30
2022-07-27T21:08:32.980Z,22.10
2022-07-27T21:11:01.327Z,22.00
2022-07-27T21:13:29.669Z,21.50
2022-07-27T21:15:57.988Z,21.60
2022-07-27T21:18:26.345Z,21.10
2022-07-27T21:20:54.663Z,21.60
2022-07-27T21:23:41.625Z,21.80
2022-07-27T21:26:09.971Z,22.00
2022-07-27T21:28:38.628Z,22.60
2022-07-27T21:31:09.686Z,22.50
2022-07-27T21:33:39.958Z,22.30
2022-07-27T21:36:09.100Z,22.00
2022-07-27T21:38:38.791Z,22.20
2022-07-27T21:41:07.138Z,22.20
2022-07-27T21:43:35.730Z,21.90
2022-07-27T21:46:04.116Z,21.60
2022-07-27T21:48:32.785Z,21.70
2022-07-27T21:51:01.525Z,21.60
2022-07-27T21:53:30.032Z,21.40
2022-07-27T21:55:59.710Z,21.10
2022-07-27T21:58:28.068Z,21.40
